This is the latest recevied weather packets stored in our database for station/object GAPWX. If no packets are shown the sender has not sent any weather packets the latest 10 day(s).
| Time | Temp. | Humidity | Pressure | Rain* | Wind** | Luminosity | Snow |
|---|---|---|---|---|---|---|---|
| 1778023331 | 15° C | 60% | 1013.7 hPa | 16 mm | - | - | - |
| 1778023035 | 15° C | 60% | 1013.7 hPa | 16 mm | - | - | - |
| 1778020923 | 14.44° C | 61% | 1013.6 hPa | 16 mm | - | - | - |
| 1778020318 | 14.44° C | 62% | 1013.7 hPa | 16 mm | - | - | - |
| 1778019717 | 14.44° C | 62% | 1013.7 hPa | 16 mm | - | - | - |
| 1778019119 | 14.44° C | 62% | 1013.7 hPa | 16 mm | - | - | - |
| 1778018812 | 14.44° C | 62% | 1013.7 hPa | 16 mm | - | - | - |
| 1778017907 | 14.44° C | 61% | 1013.6 hPa | 16 mm | - | - | - |
| 1778017607 | 14.44° C | 61% | 1013.7 hPa | 16 mm | - | - | - |
| 1778017304 | 14.44° C | 61% | 1013.5 hPa | 16 mm | - | - | - |
| 1778016407 | 13.89° C | 60% | 1013.6 hPa | 16 mm | - | - | - |
| 1778013692 | 13.89° C | 66% | 1013.6 hPa | 16 mm | - | - | - |
| 1778012182 | 12.78° C | 68% | 1013.6 hPa | 16 mm | - | - | - |
| 1778011280 | 11.67° C | 69% | 1013.6 hPa | 16 mm | - | - | - |
| 1778009771 | 10.56° C | 69% | 1013.7 hPa | 16 mm | - | - | - |
| 1778009469 | 10° C | 69% | 1013.6 hPa | 16 mm | - | - | - |
| 1778008871 | 10° C | 70% | 1013.7 hPa | 16 mm | - | - | - |
| 1778008568 | 9.44° C | 70% | 1013.7 hPa | 16 mm | - | - | - |
| 1778006455 | 8.33° C | 71% | 1013.6 hPa | 16 mm | - | - | - |
| 1778004347 | 7.78° C | 73% | 1013.4 hPa | 14.22 mm | - | - | - |
| 1778003745 | 7.78° C | 73% | 1013.2 hPa | 12.95 mm | - | - | - |
| 1778003448 | 7.22° C | 74% | 1013.3 hPa | 12.19 mm | - | - | - |
| 1778001389 | 7.22° C | 75% | 1013 hPa | 7.87 mm | - | - | - |
| 1778001032 | 7.22° C | 75% | 1012.9 hPa | 7.37 mm | - | - | - |
| 1778000730 | 6.67° C | 75% | 1013 hPa | 7.11 mm | - | - | - |
* Rain since midnight (hover to see other rain measurements)
** Current wind speed in m/s (hover to see current wind gust speed)